This is the latest recevied weather packets stored in our database for station/object DH1FR-13. If no packets are shown the sender has not sent any weather packets the latest 10 day(s).
| Time | Temp. | Humidity | Pressure | Rain* | Wind** | Luminosity | Snow |
|---|---|---|---|---|---|---|---|
| 1787686200 | 15.56° C | 98% | 1020 hPa | 1.02 mm | 0 m/s | - | - |
| 1787685601 | 15.56° C | 98% | 1020 hPa | 1.02 mm | 0 m/s | - | - |
| 1787685000 | 15.56° C | 98% | 1019.7 hPa | 0.76 mm | 0 m/s | - | - |
| 1787684401 | 15.56° C | 98% | 1019.8 hPa | 0.76 mm | 0 m/s | - | - |
| 1787683801 | 16.11° C | 98% | 1019.8 hPa | 0.76 mm | 0 m/s | - | - |
| 1787683200 | 16.11° C | 98% | 1019.7 hPa | 0.76 mm | 0 m/s | - | - |
| 1787682601 | 16.11° C | 97% | 1019.6 hPa | 0.76 mm | 0 m/s | - | - |
| 1787682001 | 16.11° C | 97% | 1019.6 hPa | 0.76 mm | 0 m/s | - | - |
| 1787681400 | 16.11° C | 96% | 1019.3 hPa | 0.76 mm | 0 m/s | - | - |
| 1787680801 | 16.11° C | 96% | 1019.2 hPa | 0.76 mm | 0 m/s | - | - |
| 1787680201 | 16.11° C | 96% | 1019.1 hPa | 0.76 mm | 0 m/s | - | - |
| 1787679600 | 16.11° C | 95% | 1019.1 hPa | 0.76 mm | 0 m/s | - | - |
| 1787679000 | 16.11° C | 95% | 1019.1 hPa | 0.51 mm | 0 m/s | - | - |
| 1787678401 | 16.11° C | 94% | 1019 hPa | 0.51 mm | 0 m/s | - | - |
| 1787677801 | 16.11° C | 93% | 1018.9 hPa | 0.51 mm | 0 m/s | - | - |
| 1787677201 | 16.11° C | 93% | 1018.7 hPa | 0.25 mm | 0 m/s | - | - |
| 1787676601 | 16.67° C | 92% | 1018.8 hPa | 0.25 mm | 0 m/s | - | - |
| 1787676001 | 16.67° C | 91% | 1018.7 hPa | 0.25 mm | 0 m/s | - | - |
| 1787675402 | 16.67° C | 89% | 1018.9 hPa | 0 mm | 0 m/s | - | - |
| 1787674801 | 17.22° C | 88% | 1018.7 hPa | 0 mm | 0 m/s | - | - |
| 1787674201 | 17.78° C | 85% | 1018.5 hPa | 0 mm | 0 m/s | - | - |
| 1787673601 | 18.33° C | 82% | 1018.5 hPa | 0 mm | 0 m/s | - | - |
| 1787673000 | 18.89° C | 74% | 1018.5 hPa | 0 mm | 0 m/s | - | - |
| 1787672401 | 20° C | 68% | 1018.5 hPa | 0 mm | 0 m/s | - | - |
| 1787671802 | 20.56° C | 64% | 1018.4 hPa | 0 mm | 0 m/s | - | - |
* Rain latest hour (hover to see other rain measurements)
** Current wind speed in m/s (hover to see current wind gust speed)